Time;durP1;ratioP1;P1;durP2;ratioP2;P2;SDS_P1;SDS_P2;PMS_P1;PMS_P2;Temp;Humidity;BMP_temperature;BMP_pressure;BME280_temperature;BME280_humidity;BME280_pressure;Samples;Min_cycle;Max_cycle;Signal;HPM_P1;HPM_P2
2024/04/04 00:01:53;;;;;;;0.67;0.67;;;;;;;-3.85;60.87;101457.72;5003125;28;20206;-73
2024/04/04 00:04:20;;;;;;;1.73;0.70;;;;;;;-3.84;60.91;101447.59;5005010;28;20447;-73
2024/04/04 00:06:46;;;;;;;1.87;0.60;;;;;;;-3.83;61.47;101456.13;5002071;28;20674;-74
2024/04/04 00:09:14;;;;;;;0.93;0.80;;;;;;;-3.83;60.92;101461.25;5005988;28;20446;-73
2024/04/04 00:11:40;;;;;;;1.10;0.70;;;;;;;-3.80;61.29;101457.13;5002862;28;20204;-78
2024/04/04 00:14:07;;;;;;;2.77;0.80;;;;;;;-3.79;61.25;101458.91;5006215;28;20456;-78
2024/04/04 00:16:35;;;;;;;0.97;0.77;;;;;;;-3.77;61.53;101453.84;5002817;28;20290;-76
2024/04/04 00:19:02;;;;;;;1.37;0.80;;;;;;;-3.74;61.56;101456.53;5002117;28;20567;-78
2024/04/04 00:21:28;;;;;;;1.93;0.80;;;;;;;-3.73;61.21;101463.44;5004167;28;20443;-76
2024/04/04 00:23:56;;;;;;;1.10;0.63;;;;;;;-3.71;61.10;101451.56;5006077;28;20508;-76
2024/04/04 00:26:22;;;;;;;1.67;0.80;;;;;;;-3.69;61.63;101464.44;5002786;28;20834;-76
2024/04/04 00:28:49;;;;;;;2.53;0.80;;;;;;;-3.69;61.18;101462.75;5005010;28;20548;-78
2024/04/04 00:31:15;;;;;;;1.00;0.90;;;;;;;-3.68;61.42;101456.81;5003236;28;20449;-78
2024/04/04 00:33:43;;;;;;;1.10;0.90;;;;;;;-3.65;61.53;101458.66;5005079;28;20445;-78
2024/04/04 00:36:09;;;;;;;1.63;1.07;;;;;;;-3.64;61.66;101456.19;5003391;28;20665;-78
2024/04/04 00:38:37;;;;;;;1.00;0.90;;;;;;;-3.63;60.96;101462.16;5002455;28;20518;-77
2024/04/04 00:41:03;;;;;;;2.77;1.03;;;;;;;-3.61;61.88;101463.13;5005692;28;20512;-78
2024/04/04 00:43:30;;;;;;;1.13;0.90;;;;;;;-3.61;61.80;101461.44;5002572;28;20880;-78
2024/04/04 00:45:57;;;;;;;0.90;0.80;;;;;;;-3.58;61.10;101465.81;5005972;28;20548;-78
2024/04/04 00:48:24;;;;;;;2.50;0.90;;;;;;;-3.66;61.61;101447.56;5002993;28;20934;-77
2024/04/04 00:50:54;;;;;;;1.00;0.60;;;;;;;-3.56;61.85;101467.63;5003842;28;20462;-78
2024/04/04 00:53:22;;;;;;;0.83;0.80;;;;;;;-3.54;61.74;101471.13;5005419;28;20510;-92
2024/04/04 00:55:49;;;;;;;0.93;0.83;;;;;;;-3.52;62.06;101469.50;5000531;28;20454;-92
2024/04/04 00:58:16;;;;;;;1.10;1.10;;;;;;;-3.51;61.98;101471.25;5003531;28;20484;-91
2024/04/04 01:00:42;;;;;;;1.93;0.80;;;;;;;-3.50;62.03;101467.91;5007473;28;20459;-92
2024/04/04 01:03:10;;;;;;;1.83;1.17;;;;;;;-3.47;61.75;101476.53;5002988;28;20472;-92
2024/04/04 01:05:36;;;;;;;1.03;0.70;;;;;;;-3.45;62.10;101480.03;5005875;28;20208;-91
2024/04/04 01:08:05;;;;;;;1.27;0.70;;;;;;;-3.43;62.17;101479.28;5005959;28;20975;-90
2024/04/04 01:10:31;;;;;;;0.60;0.60;;;;;;;-3.43;61.64;101478.41;5009630;28;20207;-91
2024/04/04 01:12:58;;;;;;;0.80;0.70;;;;;;;-3.39;61.95;101490.53;5020466;28;20909;-91
2024/04/04 01:15:24;;;;;;;0.97;0.90;;;;;;;-3.40;61.96;101481.97;5011297;28;20204;-90
2024/04/04 01:17:50;;;;;;;0.97;0.80;;;;;;;-3.38;61.90;101479.50;5006960;28;20495;-91
2024/04/04 01:20:16;;;;;;;0.90;0.77;;;;;;;-3.44;61.47;101459.66;5003919;28;20214;-92
2024/04/04 01:22:43;;;;;;;1.40;0.90;;;;;;;-3.35;61.46;101477.97;5006270;28;20457;-86
2024/04/04 01:25:10;;;;;;;0.63;0.60;;;;;;;-3.33;62.39;101475.47;5002028;28;20210;-85
2024/04/04 01:27:37;;;;;;;2.27;0.60;;;;;;;-3.33;62.28;101472.94;5004281;28;20489;-85
2024/04/04 01:30:04;;;;;;;0.80;0.80;;;;;;;-3.31;61.89;101466.16;5002785;28;20441;-84
2024/04/04 01:32:31;;;;;;;1.03;0.93;;;;;;;-3.31;61.83;101468.72;5003443;28;20528;-83
2024/04/04 01:34:57;;;;;;;2.43;0.97;;;;;;;-3.28;62.36;101471.41;5004695;28;20442;-85
2024/04/04 01:37:24;;;;;;;0.77;0.77;;;;;;;-3.34;62.27;101466.91;5002377;28;20843;-86
2024/04/04 01:39:50;;;;;;;1.50;0.90;;;;;;;-3.25;62.56;101471.56;5005524;28;20664;-86
2024/04/04 01:42:18;;;;;;;2.97;0.80;;;;;;;-3.23;62.48;101474.19;4998105;28;20461;-87
2024/04/04 01:44:44;;;;;;;1.23;0.77;;;;;;;-3.22;62.02;101479.41;5004768;28;20207;-84
2024/04/04 01:47:11;;;;;;;2.00;0.80;;;;;;;-3.21;61.93;101475.16;5003097;28;20457;-85
2024/04/04 01:49:37;;;;;;;1.07;0.80;;;;;;;-3.26;62.32;101467.25;5005373;28;20211;-84
2024/04/04 01:52:05;;;;;;;2.23;1.00;;;;;;;-3.19;62.20;101476.97;5003392;28;20501;-86
2024/04/04 01:54:31;;;;;;;1.33;0.80;;;;;;;-3.19;62.12;101476.97;5003171;28;20450;-85
2024/04/04 01:56:57;;;;;;;0.97;0.67;;;;;;;-3.18;61.73;101480.41;5002024;28;20483;-84
2024/04/04 01:59:25;;;;;;;1.80;1.10;;;;;;;-3.17;62.49;101474.47;5005155;28;20235;-84
2024/04/04 02:01:52;;;;;;;1.17;0.80;;;;;;;-3.18;62.05;101473.59;5001772;28;20464;-86
2024/04/04 02:04:18;;;;;;;0.87;0.70;;;;;;;-3.15;61.95;101481.41;5001084;28;20460;-85
2024/04/04 02:06:45;;;;;;;1.90;0.83;;;;;;;-3.13;61.92;101484.91;5002906;28;20908;-84
2024/04/04 02:09:12;;;;;;;2.07;0.73;;;;;;;-3.16;62.46;101483.88;5003763;28;20453;-85
2024/04/04 02:11:39;;;;;;;2.30;0.90;;;;;;;-3.09;62.06;101486.78;5003834;28;20943;-85
2024/04/04 02:14:09;;;;;;;1.77;0.90;;;;;;;-3.08;62.12;101492.78;5001810;28;20544;-85
2024/04/04 02:16:39;;;;;;;1.73;0.70;;;;;;;-3.08;62.44;101493.69;5005213;28;20447;-85
2024/04/04 02:19:05;;;;;;;0.70;0.70;;;;;;;-3.06;62.46;101497.16;5006135;28;20594;-85
2024/04/04 02:21:32;;;;;;;3.10;0.80;;;;;;;-3.04;62.06;101494.69;5005261;28;20995;-85
2024/04/04 02:23:58;;;;;;;0.93;0.70;;;;;;;-3.06;62.31;101494.59;5007433;28;20208;-83
2024/04/04 02:26:25;;;;;;;0.50;0.50;;;;;;;-3.04;62.20;101493.00;5003097;28;20451;-84
2024/04/04 02:28:51;;;;;;;1.17;0.80;;;;;;;-3.03;61.61;101497.31;5002541;28;20204;-84
2024/04/04 02:31:18;;;;;;;1.57;0.70;;;;;;;-3.01;62.02;101493.94;5001078;28;20458;-85
2024/04/04 02:33:45;;;;;;;1.20;0.83;;;;;;;-3.00;62.25;101496.56;5003659;28;20211;-78
2024/04/04 02:36:12;;;;;;;1.37;1.00;;;;;;;-2.98;62.20;101488.97;5003513;28;20508;-77
2024/04/04 02:38:37;;;;;;;0.70;0.63;;;;;;;-2.97;62.43;101490.69;5000019;28;20492;-77
2024/04/04 02:41:05;;;;;;;0.70;0.70;;;;;;;-2.97;62.20;101490.69;5004173;28;20924;-77
2024/04/04 02:43:31;;;;;;;1.70;0.80;;;;;;;-2.96;61.88;101492.47;5004790;28;20201;-76
2024/04/04 02:46:01;;;;;;;1.00;0.83;;;;;;;-2.98;62.26;101487.28;5005130;28;20462;-78
2024/04/04 02:48:28;;;;;;;1.63;0.80;;;;;;;-2.95;62.39;101484.84;5006055;28;20455;-77
2024/04/04 02:50:57;;;;;;;1.23;0.70;;;;;;;-2.93;62.69;101492.59;5003705;28;20555;-77
2024/04/04 02:53:23;;;;;;;1.20;0.97;;;;;;;-2.94;62.23;101485.72;5003457;28;20445;-77
2024/04/04 02:55:54;;;;;;;1.47;1.03;;;;;;;-2.91;62.55;101490.97;5005823;28;20498;-77
2024/04/04 02:58:20;;;;;;;2.67;0.83;;;;;;;-2.90;62.29;101487.63;5004737;28;20491;-78
2024/04/04 03:00:47;;;;;;;1.90;0.83;;;;;;;-2.89;61.88;101486.78;5004578;28;20444;-77
2024/04/04 03:03:13;;;;;;;2.00;0.83;;;;;;;-2.87;62.48;101485.19;5005763;28;20440;-77
2024/04/04 03:05:40;;;;;;;1.77;0.73;;;;;;;-2.86;62.47;101489.50;5003532;28;20457;-77
2024/04/04 03:08:08;;;;;;;1.17;0.80;;;;;;;-2.86;62.43;101487.78;5002896;28;20225;-77
2024/04/04 03:10:36;;;;;;;2.73;1.00;;;;;;;-2.86;62.62;101489.50;5003071;28;20539;-78
2024/04/04 03:13:03;;;;;;;2.67;1.10;;;;;;;-2.84;62.39;101490.44;5005832;28;20809;-77
2024/04/04 03:15:30;;;;;;;1.77;1.00;;;;;;;-2.83;62.56;101495.59;5004227;28;20567;-77
2024/04/04 03:17:56;;;;;;;1.17;0.63;;;;;;;-2.83;62.76;101489.63;5004387;28;20489;-77
2024/04/04 03:20:23;;;;;;;1.33;0.80;;;;;;;-2.90;62.38;101480.81;5005171;28;20546;-77
2024/04/04 03:22:49;;;;;;;1.27;0.60;;;;;;;-2.81;62.66;101494.00;5003358;28;20983;-76
2024/04/04 03:25:18;;;;;;;3.33;0.90;;;;;;;-2.88;62.38;101485.97;5005784;28;20442;-76
2024/04/04 03:27:44;;;;;;;2.43;0.90;;;;;;;-2.79;62.30;101500.84;5002636;28;20483;-76
2024/04/04 03:30:11;;;;;;;4.57;0.90;;;;;;;-2.80;62.09;101492.31;5005567;28;20451;-77
2024/04/04 03:32:37;;;;;;;1.27;0.80;;;;;;;-2.78;61.97;101494.94;5003500;28;20851;-77
2024/04/04 03:35:05;;;;;;;0.90;0.90;;;;;;;-2.78;62.07;101484.72;5004447;28;20513;-76
2024/04/04 03:37:31;;;;;;;0.97;0.80;;;;;;;-2.76;62.12;101498.47;5004195;28;20212;-77
2024/04/04 03:39:58;;;;;;;3.20;0.80;;;;;;;-2.75;62.75;101500.19;5003253;28;20455;-76
2024/04/04 03:42:26;;;;;;;0.70;0.70;;;;;;;-2.74;62.50;101505.38;5005379;28;20212;-76
2024/04/04 03:44:53;;;;;;;2.13;0.87;;;;;;;-2.73;61.99;101504.59;5001933;28;20964;-76
2024/04/04 03:47:19;;;;;;;1.67;0.77;;;;;;;-2.72;62.44;101514.00;5005981;28;20451;-77
2024/04/04 03:49:46;;;;;;;1.23;0.80;;;;;;;-2.71;62.03;101514.88;5004730;28;20455;-77
2024/04/04 03:52:12;;;;;;;1.83;0.90;;;;;;;-2.70;62.41;101516.66;5002103;28;20662;-77
2024/04/04 03:54:39;;;;;;;1.13;0.73;;;;;;;-2.70;62.85;101512.41;5004190;28;20455;-76
2024/04/04 03:57:06;;;;;;;1.10;0.80;;;;;;;-2.69;62.12;101523.50;5004033;28;20248;-78
2024/04/04 03:59:34;;;;;;;1.23;0.70;;;;;;;-2.66;62.52;101518.53;5002490;28;20492;-77
2024/04/04 04:02:00;;;;;;;2.10;0.97;;;;;;;-2.67;62.26;101517.66;5004708;28;20450;-77
2024/04/04 04:04:27;;;;;;;5.20;1.10;;;;;;;-2.65;62.95;101518.59;5001561;28;20455;-76
2024/04/04 04:06:53;;;;;;;0.70;0.70;;;;;;;-2.63;62.58;101518.66;5001692;28;20445;-77
2024/04/04 04:09:20;;;;;;;1.47;0.80;;;;;;;-2.63;62.73;101514.41;5004629;28;20466;-77
2024/04/04 04:11:47;;;;;;;2.83;0.80;;;;;;;-2.66;62.91;101513.41;5003068;28;21090;-77
2024/04/04 04:14:15;;;;;;;1.33;0.70;;;;;;;-2.62;62.57;101521.28;5003552;28;20451;-78
2024/04/04 04:16:42;;;;;;;1.00;0.77;;;;;;;-2.60;62.62;101523.91;5001323;28;20212;-77
2024/04/04 04:19:09;;;;;;;1.37;0.90;;;;;;;-2.58;62.72;101519.72;5004248;28;20511;-78
2024/04/04 04:21:35;;;;;;;0.93;0.80;;;;;;;-2.59;62.47;101516.28;5001624;28;20460;-77
2024/04/04 04:24:02;;;;;;;1.27;0.90;;;;;;;-2.58;62.78;101523.16;5004864;28;20447;-77
2024/04/04 04:26:29;;;;;;;4.63;1.13;;;;;;;-2.58;62.61;101517.16;5001907;28;20568;-77
2024/04/04 04:28:56;;;;;;;2.07;0.90;;;;;;;-2.54;63.10;101523.28;5003822;28;20498;-77
2024/04/04 04:31:24;;;;;;;2.17;0.90;;;;;;;-2.54;62.78;101520.72;5002713;28;20965;-77
2024/04/04 04:33:53;;;;;;;4.10;1.03;;;;;;;-2.52;62.83;101519.13;5002593;28;20848;-77
2024/04/04 04:36:19;;;;;;;3.87;0.90;;;;;;;-2.51;62.44;101519.16;5003902;28;20909;-77
2024/04/04 04:38:46;;;;;;;2.20;0.80;;;;;;;-2.51;62.78;101520.84;5001487;28;20492;-77
2024/04/04 04:41:13;;;;;;;0.90;0.73;;;;;;;-2.51;62.49;101524.28;5004526;28;20458;-77
2024/04/04 04:43:42;;;;;;;0.80;0.70;;;;;;;-2.50;62.76;101526.06;5001344;28;20460;-76
2024/04/04 04:46:10;;;;;;;2.03;1.10;;;;;;;-2.49;62.88;101521.81;5003255;28;20435;-76
2024/04/04 04:48:36;;;;;;;1.37;0.93;;;;;;;-2.52;62.91;101511.44;5002878;28;20486;-76
2024/04/04 04:51:05;;;;;;;1.03;0.80;;;;;;;-2.48;62.92;101518.41;5002475;28;20846;-77
2024/04/04 04:53:31;;;;;;;2.13;1.20;;;;;;;-2.47;63.13;101523.63;5005061;28;20576;-74
2024/04/04 04:55:58;;;;;;;2.90;0.90;;;;;;;-2.49;62.63;101524.38;5000762;28;20453;-74
2024/04/04 04:58:24;;;;;;;2.33;1.10;;;;;;;-2.45;63.12;101527.13;5000635;28;20221;-74
2024/04/04 05:00:52;;;;;;;1.70;1.20;;;;;;;-2.42;63.10;101534.09;5003890;28;20818;-73
2024/04/04 05:03:18;;;;;;;0.83;0.80;;;;;;;-2.41;63.19;101535.81;5001745;28;20236;-73
2024/04/04 05:05:44;;;;;;;2.37;1.00;;;;;;;-2.43;63.01;101535.75;5004780;28;20479;-75
2024/04/04 05:08:12;;;;;;;2.20;1.20;;;;;;;-2.38;62.60;101533.38;5005394;28;20232;-74
2024/04/04 05:10:39;;;;;;;1.50;0.83;;;;;;;-2.37;62.98;101538.59;5004557;28;20447;-73
2024/04/04 05:13:05;;;;;;;3.00;1.30;;;;;;;-2.34;62.80;101537.81;5000943;28;20448;-73
2024/04/04 05:15:32;;;;;;;1.03;0.90;;;;;;;-2.33;63.14;101542.16;5003967;28;20447;-75
2024/04/04 05:17:58;;;;;;;2.00;1.00;;;;;;;-2.31;62.71;101537.97;4996858;28;20429;-74
2024/04/04 05:20:25;;;;;;;1.60;0.90;;;;;;;-2.29;62.87;101541.44;5003474;28;20486;-73
2024/04/04 05:22:51;;;;;;;1.30;0.97;;;;;;;-2.25;62.97;101547.56;5003992;28;20596;-73
2024/04/04 05:25:19;;;;;;;1.40;1.03;;;;;;;-2.24;62.65;101544.22;5003251;28;20454;-73
2024/04/04 05:27:45;;;;;;;2.00;1.20;;;;;;;-2.23;62.62;101549.38;5002261;28;20213;-72
2024/04/04 05:30:14;;;;;;;2.67;0.93;;;;;;;-2.20;63.43;101541.81;5001569;28;20842;-75
2024/04/04 05:32:40;;;;;;;3.20;1.20;;;;;;;-2.18;63.04;101547.03;5000036;28;20205;-77
2024/04/04 05:35:08;;;;;;;2.77;1.20;;;;;;;-2.16;63.49;101548.84;5005229;28;20539;-77
2024/04/04 05:37:34;;;;;;;2.17;0.77;;;;;;;-2.18;63.33;101535.09;5000681;28;20535;-78
2024/04/04 05:40:01;;;;;;;1.93;1.00;;;;;;;-2.08;63.31;101550.84;5005436;28;20519;-76
2024/04/04 05:42:29;;;;;;;0.77;0.77;;;;;;;-2.05;63.49;101545.84;5003943;28;20448;-77
2024/04/04 05:44:56;;;;;;;0.80;0.80;;;;;;;-2.02;63.22;101551.13;5002874;28;20527;-79
2024/04/04 05:47:22;;;;;;;1.47;0.97;;;;;;;-2.01;62.59;101552.84;5005492;28;20440;-77
2024/04/04 05:49:49;;;;;;;5.80;1.17;;;;;;;-1.98;62.94;101555.53;5002395;28;20478;-78
2024/04/04 05:52:15;;;;;;;3.77;1.00;;;;;;;-1.97;62.63;101555.63;5004884;28;20208;-78
2024/04/04 05:54:42;;;;;;;2.80;1.03;;;;;;;-1.92;62.78;101566.06;5001240;28;20444;-77
2024/04/04 05:57:08;;;;;;;1.33;1.23;;;;;;;-1.91;62.47;101561.00;5001692;28;20240;-78
2024/04/04 05:59:36;;;;;;;1.27;0.93;;;;;;;-1.86;62.66;101555.16;5001078;28;20496;-79
2024/04/04 06:02:02;;;;;;;4.17;0.80;;;;;;;-1.83;63.25;101558.72;5006427;28;20567;-80
2024/04/04 06:04:29;;;;;;;1.13;0.90;;;;;;;-1.77;62.43;101563.22;5002365;28;20448;-78
2024/04/04 06:06:55;;;;;;;1.37;1.13;;;;;;;-1.75;63.25;101561.59;5001312;28;20208;-77
2024/04/04 06:09:22;;;;;;;3.37;0.93;;;;;;;-1.72;62.77;101554.03;5002610;28;20518;-79
2024/04/04 06:11:48;;;;;;;2.73;1.03;;;;;;;-1.69;62.96;101559.28;5004302;28;20205;-77
2024/04/04 06:14:14;;;;;;;1.47;0.83;;;;;;;-1.64;63.37;101569.75;5004003;28;20463;-77
2024/04/04 06:16:42;;;;;;;3.03;1.10;;;;;;;-1.60;62.59;101566.47;5001017;28;20212;-80
2024/04/04 06:19:09;;;;;;;2.27;1.07;;;;;;;-1.57;62.22;101566.59;5007200;28;20538;-76
2024/04/04 06:21:35;;;;;;;1.97;0.90;;;;;;;-1.63;60.87;101554.38;5005338;28;20463;-77
2024/04/04 06:24:02;;;;;;;1.27;1.10;;;;;;;-1.52;60.95;101565.06;5006028;28;20435;-76
2024/04/04 06:26:28;;;;;;;2.00;0.80;;;;;;;-1.55;60.91;101559.81;5007236;28;20207;-76
2024/04/04 06:28:56;;;;;;;2.33;1.80;;;;;;;-1.52;60.74;101554.81;5009212;28;20460;-77
2024/04/04 06:31:22;;;;;;;2.70;1.20;;;;;;;-1.49;60.32;101549.81;5004220;28;20453;-78
2024/04/04 06:33:50;;;;;;;1.60;0.93;;;;;;;-1.47;60.68;101558.44;5003533;28;20922;-78
2024/04/04 06:36:17;;;;;;;2.07;0.93;;;;;;;-1.48;59.87;101556.72;5007866;28;20452;-79
2024/04/04 06:38:44;;;;;;;2.70;1.00;;;;;;;-1.47;59.67;101553.31;5006363;28;20562;-78
2024/04/04 06:41:10;;;;;;;2.30;0.90;;;;;;;-1.46;59.85;101560.19;5005611;28;20209;-78
2024/04/04 06:43:37;;;;;;;1.23;0.90;;;;;;;-1.46;59.78;101560.19;5009414;28;20448;-87
2024/04/04 06:46:04;;;;;;;1.57;1.10;;;;;;;-1.44;59.28;101556.00;5006672;28;20674;-92
2024/04/04 06:48:32;;;;;;;2.03;0.80;;;;;;;-1.42;59.60;101561.19;5005672;28;20487;-82
2024/04/04 06:51:00;;;;;;;1.50;0.80;;;;;;;-1.41;59.73;101552.69;5009453;28;20455;-92
2024/04/04 06:53:27;;;;;;;2.77;1.20;;;;;;;-1.41;59.44;101561.25;5011709;28;20555;-92
2024/04/04 06:55:52;;;;;;;0.60;0.50;;;;;;;-1.43;59.92;101546.59;5005292;28;20448;-92
2024/04/04 06:58:19;;;;;;;1.60;0.80;;;;;;;-1.38;59.97;101556.22;5010125;28;20530;-93
2024/04/04 07:00:55;;;;;;;2.27;0.87;;;;;;;-1.36;59.12;101562.31;5007525;28;20224;-91
2024/04/04 07:03:22;;;;;;;1.17;0.63;;;;;;;-1.34;59.68;101564.91;5006999;28;20448;-91
2024/04/04 07:05:47;;;;;;;1.20;0.90;;;;;;;-1.37;59.18;101562.22;5006780;28;20444;-92
2024/04/04 07:08:16;;;;;;;0.83;0.40;;;;;;;-1.32;59.61;101573.56;5006893;28;20489;-91
2024/04/04 07:10:42;;;;;;;1.10;1.00;;;;;;;-1.32;59.26;101574.44;5008997;28;20202;-85
2024/04/04 07:13:09;;;;;;;2.60;1.00;;;;;;;-1.28;59.65;101566.03;5008061;28;20446;-77
2024/04/04 07:15:35;;;;;;;2.70;0.73;;;;;;;-1.26;59.26;101566.97;5007781;28;20697;-78
2024/04/04 07:18:08;;;;;;;2.87;0.87;;;;;;;-1.23;59.20;101569.66;5003879;28;20444;-77
2024/04/04 07:20:35;;;;;;;3.00;0.70;;;;;;;-1.17;59.76;101571.59;5007175;28;20211;-77
2024/04/04 07:23:02;;;;;;;1.13;0.97;;;;;;;-1.10;59.41;101570.13;5003764;28;20452;-77
2024/04/04 07:25:29;;;;;;;1.10;0.83;;;;;;;-1.03;60.00;101569.53;5006554;28;20812;-77
2024/04/04 07:27:56;;;;;;;0.40;0.27;;;;;;;-1.01;59.88;101570.47;5004483;28;20440;-76
2024/04/04 07:30:22;;;;;;;1.10;0.73;;;;;;;-0.90;59.66;101576.88;5006769;28;20456;-78
2024/04/04 07:32:49;;;;;;;2.40;0.83;;;;;;;-0.83;59.58;101586.56;5000622;28;20827;-78
2024/04/04 07:35:14;;;;;;;1.97;1.03;;;;;;;-0.79;59.37;101580.72;5006914;28;20211;-77
2024/04/04 07:37:41;;;;;;;0.80;0.70;;;;;;;-0.76;57.95;101582.53;5006261;28;20460;-80
2024/04/04 07:40:08;;;;;;;2.10;0.67;;;;;;;-0.71;57.55;101575.84;5006130;28;20785;-78
2024/04/04 07:42:36;;;;;;;2.63;0.90;;;;;;;-0.67;57.11;101576.84;5002616;28;20950;-78
2024/04/04 07:45:02;;;;;;;0.80;0.80;;;;;;;-0.64;58.18;101582.09;5003370;28;20969;-78
2024/04/04 07:47:30;;;;;;;2.17;1.03;;;;;;;-0.57;57.87;101584.06;5005109;28;20447;-77
2024/04/04 07:49:56;;;;;;;1.23;0.70;;;;;;;-0.50;58.10;101573.16;5008342;28;20452;-77
2024/04/04 07:52:23;;;;;;;2.27;0.90;;;;;;;-0.41;58.36;101583.78;5007285;28;21231;-78
2024/04/04 07:54:48;;;;;;;3.30;0.83;;;;;;;-0.38;57.98;101586.44;5002596;28;20197;-78
2024/04/04 07:57:15;;;;;;;0.73;0.70;;;;;;;-0.31;58.54;101581.53;5002190;28;20562;-78
2024/04/04 07:59:43;;;;;;;1.27;0.60;;;;;;;-0.31;58.38;101586.69;5002276;28;20225;-78
2024/04/04 08:02:10;;;;;;;1.53;0.80;;;;;;;-0.27;57.42;101588.53;5008629;28;20456;-78
2024/04/04 08:04:36;;;;;;;2.27;1.03;;;;;;;-0.26;56.93;101585.13;5003744;28;20452;-78
2024/04/04 08:07:03;;;;;;;2.13;1.17;;;;;;;-0.26;56.85;101587.69;5005841;28;20453;-76
2024/04/04 08:09:29;;;;;;;1.27;0.90;;;;;;;-0.27;56.25;101584.25;5003888;28;20570;-77
2024/04/04 08:11:55;;;;;;;0.57;0.57;;;;;;;-0.27;56.38;101584.25;5004773;28;20466;-78
2024/04/04 08:14:25;;;;;;;1.33;0.73;;;;;;;-0.27;56.08;101585.97;5006612;28;20780;-77
2024/04/04 08:16:53;;;;;;;0.87;0.80;;;;;;;-0.22;56.44;101587.00;5006797;28;20215;-77
2024/04/04 08:19:19;;;;;;;1.63;0.90;;;;;;;-0.20;55.69;101593.06;5005184;28;20479;-78
2024/04/04 08:21:47;;;;;;;2.03;1.00;;;;;;;-0.19;56.46;101577.69;4998818;28;20441;-77
2024/04/04 08:24:14;;;;;;;0.73;0.60;;;;;;;-0.13;56.11;101584.72;5003958;28;21000;-77
2024/04/04 08:26:41;;;;;;;0.97;0.60;;;;;;;-0.08;56.80;101584.91;5004052;28;20451;-78
2024/04/04 08:29:08;;;;;;;0.97;0.80;;;;;;;-0.04;56.42;101587.59;5002988;28;20495;-78
2024/04/04 08:31:34;;;;;;;0.70;0.63;;;;;;;-0.01;56.00;101590.28;5004805;28;20521;-78
2024/04/04 08:34:02;;;;;;;4.53;0.87;;;;;;;0.06;56.46;101588.81;5001985;28;20961;-78
2024/04/04 08:36:29;;;;;;;1.90;0.50;;;;;;;0.10;56.16;101596.66;5005253;28;20201;-79
2024/04/04 08:38:56;;;;;;;1.27;0.80;;;;;;;0.17;55.73;101594.28;5001269;28;20491;-77
2024/04/04 08:41:23;;;;;;;1.77;0.70;;;;;;;0.23;56.17;101590.22;5004158;28;20213;-77
2024/04/04 08:43:55;;;;;;;1.20;0.90;;;;;;;0.27;55.30;101588.63;5003311;28;20555;-79
2024/04/04 08:46:21;;;;;;;1.33;1.00;;;;;;;0.34;54.88;101593.16;5002435;28;20441;-76
2024/04/04 08:48:53;;;;;;;1.30;0.70;;;;;;;0.39;54.93;101599.31;5005052;28;20468;-77
2024/04/04 08:51:21;;;;;;;0.87;0.50;;;;;;;0.43;55.02;101598.59;5002067;28;20793;-77
2024/04/04 08:53:48;;;;;;;1.53;1.30;;;;;;;0.44;54.95;101587.47;5001208;28;20485;-76
2024/04/04 08:56:14;;;;;;;0.30;0.30;;;;;;;0.52;55.62;101596.31;5002918;28;20469;-78
2024/04/04 08:58:41;;;;;;;1.00;0.63;;;;;;;0.58;55.21;101601.66;5004557;28;20448;-77
2024/04/04 09:01:06;;;;;;;0.10;0.10;;;;;;;0.64;55.63;101594.94;5003577;28;20240;-77
2024/04/04 09:03:33;;;;;;;2.57;1.00;;;;;;;0.69;55.20;101603.69;5002437;28;20554;-75
2024/04/04 09:06:01;;;;;;;0.60;0.60;;;;;;;0.75;55.46;101602.16;5001095;28;20201;-76
2024/04/04 09:08:31;;;;;;;0.97;0.80;;;;;;;0.80;55.38;101603.19;5001248;28;20835;-76
2024/04/04 09:11:00;;;;;;;1.43;1.00;;;;;;;0.88;55.09;101611.16;5003394;28;20996;-78
2024/04/04 09:13:29;;;;;;;0.90;0.73;;;;;;;0.89;54.55;101604.31;5002736;28;20938;-77
2024/04/04 09:15:59;;;;;;;0.70;0.63;;;;;;;0.90;53.45;101608.63;5001991;28;20451;-76
2024/04/04 09:18:26;;;;;;;0.53;0.30;;;;;;;0.93;54.46;101614.72;5004344;28;20459;-79
2024/04/04 09:20:52;;;;;;;1.60;0.90;;;;;;;0.97;54.93;101611.44;5001133;28;20488;-77
2024/04/04 09:23:19;;;;;;;0.40;0.40;;;;;;;1.05;54.40;101609.09;5003002;28;20450;-77
2024/04/04 09:25:47;;;;;;;1.43;1.33;;;;;;;1.13;54.58;101611.88;5010290;28;20579;-76
2024/04/04 09:28:18;;;;;;;0.50;0.50;;;;;;;1.19;54.56;101617.22;5010032;28;20480;-77
2024/04/04 09:30:46;;;;;;;1.37;0.87;;;;;;;1.23;54.30;101619.94;5001629;28;20520;-78
2024/04/04 09:33:14;;;;;;;0.83;0.67;;;;;;;1.29;54.42;101624.41;5004597;28;20803;-78
2024/04/04 09:35:41;;;;;;;0.83;0.80;;;;;;;1.34;54.47;101615.09;5000960;28;20824;-77
2024/04/04 09:38:09;;;;;;;1.63;0.80;;;;;;;1.38;54.68;101627.22;5003548;28;20454;-77
2024/04/04 09:40:36;;;;;;;3.20;0.63;;;;;;;1.43;54.51;101628.25;5002112;28;20488;-77
2024/04/04 09:43:05;;;;;;;0.83;0.60;;;;;;;1.48;54.79;101616.34;5002403;28;20465;-79
2024/04/04 09:45:31;;;;;;;0.87;0.70;;;;;;;1.49;54.43;101612.06;5005535;28;20449;-77
2024/04/04 09:47:59;;;;;;;0.50;0.50;;;;;;;1.56;54.37;101620.84;5001174;28;20451;-78
2024/04/04 09:50:25;;;;;;;1.00;0.80;;;;;;;1.54;54.35;101607.06;5003149;28;20967;-78
2024/04/04 09:52:52;;;;;;;0.53;0.50;;;;;;;1.58;54.10;101614.03;5000657;28;20445;-77
2024/04/04 09:55:20;;;;;;;3.67;0.77;;;;;;;1.61;54.10;101616.69;5002793;28;20454;-78
2024/04/04 09:57:49;;;;;;;3.97;1.00;;;;;;;1.65;53.87;101621.13;5003929;28;20481;-78
2024/04/04 10:00:18;;;;;;;0.70;0.40;;;;;;;1.62;54.19;101614.16;5002688;28;20540;-78
2024/04/04 10:02:48;;;;;;;1.90;0.60;;;;;;;1.68;53.70;101614.31;5000822;28;20535;-78
2024/04/04 10:05:18;;;;;;;1.27;0.70;;;;;;;1.64;52.83;101611.59;5003805;28;20517;-77
2024/04/04 10:07:47;;;;;;;2.27;0.70;;;;;;;1.64;53.42;101616.78;5001213;28;20457;-78
2024/04/04 10:10:19;;;;;;;1.00;0.73;;;;;;;1.66;52.88;101615.97;5002336;28;20472;-78
2024/04/04 10:12:50;;;;;;;0.97;0.60;;;;;;;1.68;53.14;101623.78;5003712;28;20457;-79
2024/04/04 10:15:18;;;;;;;0.80;0.70;;;;;;;1.69;53.43;101620.34;5001621;28;20446;-79
2024/04/04 10:17:46;;;;;;;0.67;0.67;;;;;;;1.69;53.65;101625.50;4997992;28;20444;-78
2024/04/04 10:20:12;;;;;;;1.53;0.83;;;;;;;1.68;52.86;101623.78;5002706;28;20498;-78
2024/04/04 10:22:39;;;;;;;0.97;0.60;;;;;;;1.65;52.98;101618.53;5000371;28;20534;-79
2024/04/04 10:25:06;;;;;;;2.37;0.87;;;;;;;1.60;53.09;101613.25;5002976;28;20449;-77
2024/04/04 10:27:33;;;;;;;1.30;1.00;;;;;;;1.56;52.61;101602.78;5002803;28;20466;-76
2024/04/04 10:29:59;;;;;;;1.00;0.83;;;;;;;1.54;52.71;101607.06;5004439;28;20463;-77
2024/04/04 10:32:30;;;;;;;0.93;0.67;;;;;;;1.48;52.51;101610.34;5000321;28;20477;-77
2024/04/04 10:35:01;;;;;;;1.43;0.80;;;;;;;1.43;52.47;101612.78;5002527;28;20459;-77
2024/04/04 10:37:29;;;;;;;1.67;0.90;;;;;;;1.38;52.50;101614.34;5002041;28;20458;-76
2024/04/04 10:39:56;;;;;;;0.40;0.40;;;;;;;1.36;53.20;101605.72;4999945;28;20489;-78
2024/04/04 10:42:23;;;;;;;0.70;0.60;;;;;;;1.37;52.65;101606.56;5000548;28;20500;-77
2024/04/04 10:44:51;;;;;;;2.33;0.77;;;;;;;1.38;52.92;101611.75;4999948;28;20441;-77
2024/04/04 10:47:17;;;;;;;0.80;0.80;;;;;;;1.41;52.69;101614.41;5000592;28;20548;-78
2024/04/04 10:49:45;;;;;;;0.93;0.90;;;;;;;1.42;53.33;101605.88;5002578;28;20464;-78
2024/04/04 10:52:13;;;;;;;1.43;0.83;;;;;;;1.45;53.53;101605.09;5001660;28;20463;-78
2024/04/04 10:54:39;;;;;;;0.70;0.70;;;;;;;1.44;53.64;101604.19;5000151;28;20441;-77
2024/04/04 10:57:07;;;;;;;0.67;0.63;;;;;;;1.45;53.46;101611.13;5000567;28;20514;-77
2024/04/04 10:59:34;;;;;;;1.70;0.83;;;;;;;1.45;53.40;101605.97;5003092;28;20499;-77
2024/04/04 11:02:04;;;;;;;1.10;0.87;;;;;;;1.50;53.81;101605.19;5004833;28;20535;-77
2024/04/04 11:04:32;;;;;;;0.40;0.40;;;;;;;1.47;53.17;101593.97;5004684;28;20460;-77
2024/04/04 11:07:00;;;;;;;1.00;0.90;;;;;;;1.51;53.77;101609.53;5007440;28;20484;-77
2024/04/04 11:09:28;;;;;;;0.97;0.90;;;;;;;1.52;53.22;101603.53;5004708;28;20461;-76
2024/04/04 11:11:56;;;;;;;0.80;0.80;;;;;;;1.51;53.81;101614.69;5005910;28;20452;-79
2024/04/04 11:14:23;;;;;;;1.37;0.80;;;;;;;1.50;53.72;101610.34;5002997;28;20451;-79
2024/04/04 11:16:53;;;;;;;0.67;0.67;;;;;;;1.48;53.31;101605.16;5003052;28;20468;-77
2024/04/04 11:19:20;;;;;;;1.07;0.90;;;;;;;1.43;53.11;101597.28;5005063;28;20492;-78
2024/04/04 11:21:48;;;;;;;0.83;0.70;;;;;;;1.45;53.07;101608.53;5003092;28;20463;-77
2024/04/04 11:24:16;;;;;;;0.70;0.60;;;;;;;1.46;53.44;101607.69;5004936;28;20442;-78
2024/04/04 11:26:43;;;;;;;2.07;1.00;;;;;;;1.39;52.86;101600.63;5003513;28;20441;-78